sensor_id;sensor_type;location;lat;lon;timestamp;pressure;altitude;pressure_sealevel;temperature;humidity
30897;BME280;17597;52.246;21.054;2022-08-02T00:01:18;100440.09;;;20.64;78.57
30897;BME280;17597;52.246;21.054;2022-08-02T00:03:43;100441.91;;;20.51;78.95
30897;BME280;17597;52.246;21.054;2022-08-02T00:06:08;100440.94;;;20.56;79.09
30897;BME280;17597;52.246;21.054;2022-08-02T00:08:34;100435.69;;;20.51;79.08
30897;BME280;17597;52.246;21.054;2022-08-02T00:11:00;100441.09;;;20.51;79.66
30897;BME280;17597;52.246;21.054;2022-08-02T00:13:26;100441.91;;;20.51;79.50
30897;BME280;17597;52.246;21.054;2022-08-02T00:15:51;100440.81;;;20.53;79.10
30897;BME280;17597;52.246;21.054;2022-08-02T00:18:17;100434.09;;;20.50;79.65
30897;BME280;17597;52.246;21.054;2022-08-02T00:20:42;100435.06;;;20.54;79.14
30897;BME280;17597;52.246;21.054;2022-08-02T00:23:08;100438.09;;;20.53;79.55
30897;BME280;17597;52.246;21.054;2022-08-02T00:25:34;100438.91;;;20.53;80.24
30897;BME280;17597;52.246;21.054;2022-08-02T00:27:59;100440.47;;;20.54;79.74
30897;BME280;17597;52.246;21.054;2022-08-02T00:30:25;100444.16;;;20.49;79.95
30897;BME280;17597;52.246;21.054;2022-08-02T00:32:51;100445.28;;;20.48;80.42
30897;BME280;17597;52.246;21.054;2022-08-02T00:35:16;100451.69;;;20.44;80.39
30897;BME280;17597;52.246;21.054;2022-08-02T00:37:42;100452.81;;;20.43;80.54
30897;BME280;17597;52.246;21.054;2022-08-02T00:40:09;100452.63;;;20.39;80.76
30897;BME280;17597;52.246;21.054;2022-08-02T00:42:35;100448.78;;;20.40;80.29
30897;BME280;17597;52.246;21.054;2022-08-02T00:45:01;100447.53;;;20.38;80.34
30897;BME280;17597;52.246;21.054;2022-08-02T00:47:26;100441.53;;;20.32;80.85
30897;BME280;17597;52.246;21.054;2022-08-02T00:49:51;100442.31;;;20.33;80.64
30897;BME280;17597;52.246;21.054;2022-08-02T00:52:17;100439.94;;;20.31;80.64
30897;BME280;17597;52.246;21.054;2022-08-02T00:54:42;100446.63;;;20.25;81.46
30897;BME280;17597;52.246;21.054;2022-08-02T00:57:07;100430.03;;;20.27;81.79
30897;BME280;17597;52.246;21.054;2022-08-02T00:59:33;100438.50;;;20.25;81.29
30897;BME280;17597;52.246;21.054;2022-08-02T01:01:59;100445.06;;;20.24;81.18
30897;BME280;17597;52.246;21.054;2022-08-02T01:04:25;100455.91;;;20.24;80.84
30897;BME280;17597;52.246;21.054;2022-08-02T01:06:51;100454.94;;;20.20;81.63
30897;BME280;17597;52.246;21.054;2022-08-02T01:09:17;100454.03;;;20.07;81.49
30897;BME280;17597;52.246;21.054;2022-08-02T01:11:42;100464.06;;;20.07;81.42
30897;BME280;17597;52.246;21.054;2022-08-02T01:14:10;100465.34;;;20.09;81.66
30897;BME280;17597;52.246;21.054;2022-08-02T01:16:42;100464.53;;;20.09;81.60
30897;BME280;17597;52.246;21.054;2022-08-02T01:22:20;100466.75;;;20.15;81.67
30897;BME280;17597;52.246;21.054;2022-08-02T01:25:06;100466.09;;;20.18;82.09
30897;BME280;17597;52.246;21.054;2022-08-02T01:28:00;100464.84;;;20.16;82.11
30897;BME280;17597;52.246;21.054;2022-08-02T01:30:28;100466.91;;;20.19;81.79
30897;BME280;17597;52.246;21.054;2022-08-02T01:32:57;100442.28;;;19.94;82.54
30897;BME280;17597;52.246;21.054;2022-08-02T01:35:29;100459.63;;;20.02;83.09
30897;BME280;17597;52.246;21.054;2022-08-02T01:38:13;100465.72;;;19.99;83.57
30897;BME280;17597;52.246;21.054;2022-08-02T01:40:43;100466.97;;;20.02;84.43
30897;BME280;17597;52.246;21.054;2022-08-02T01:43:10;100460.75;;;20.01;84.54
30897;BME280;17597;52.246;21.054;2022-08-02T01:45:40;100463.16;;;20.03;83.93
30897;BME280;17597;52.246;21.054;2022-08-02T01:48:07;100464.41;;;20.05;84.60
30897;BME280;17597;52.246;21.054;2022-08-02T01:50:35;100459.78;;;20.06;84.28
30897;BME280;17597;52.246;21.054;2022-08-02T01:53:07;100463.28;;;20.06;84.18
30897;BME280;17597;52.246;21.054;2022-08-02T01:55:43;100471.09;;;20.08;84.43
30897;BME280;17597;52.246;21.054;2022-08-02T01:58:10;100461.22;;;20.03;84.59
30897;BME280;17597;52.246;21.054;2022-08-02T02:00:40;100459.47;;;19.99;84.37
30897;BME280;17597;52.246;21.054;2022-08-02T02:03:12;100470.00;;;20.00;84.48
30897;BME280;17597;52.246;21.054;2022-08-02T02:05:38;100469.84;;;19.97;84.25
30897;BME280;17597;52.246;21.054;2022-08-02T02:08:07;100467.78;;;19.93;84.06
30897;BME280;17597;52.246;21.054;2022-08-02T02:10:35;100476.25;;;19.92;84.17
30897;BME280;17597;52.246;21.054;2022-08-02T02:13:05;100473.84;;;19.90;84.09
30897;BME280;17597;52.246;21.054;2022-08-02T02:15:33;100473.66;;;19.96;83.26
30897;BME280;17597;52.246;21.054;2022-08-02T02:18:00;100473.53;;;19.92;83.36
30897;BME280;17597;52.246;21.054;2022-08-02T02:20:27;100474.66;;;19.91;83.37
30897;BME280;17597;52.246;21.054;2022-08-02T02:22:53;100479.28;;;19.90;82.48
30897;BME280;17597;52.246;21.054;2022-08-02T02:25:22;100477.97;;;19.88;82.55
30897;BME280;17597;52.246;21.054;2022-08-02T02:27:55;100475.47;;;19.83;82.64
30897;BME280;17597;52.246;21.054;2022-08-02T02:30:25;100474.66;;;19.74;83.69
30897;BME280;17597;52.246;21.054;2022-08-02T02:32:54;100481.34;;;19.76;84.31
30897;BME280;17597;52.246;21.054;2022-08-02T02:35:22;100472.94;;;19.69;84.49
30897;BME280;17597;52.246;21.054;2022-08-02T02:37:49;100479.31;;;19.64;85.35
30897;BME280;17597;52.246;21.054;2022-08-02T02:40:16;100479.63;;;19.63;85.24
30897;BME280;17597;52.246;21.054;2022-08-02T02:42:43;100478.50;;;19.64;85.52
30897;BME280;17597;52.246;21.054;2022-08-02T02:45:10;100479.78;;;19.67;85.01
30897;BME280;17597;52.246;21.054;2022-08-02T02:47:36;100480.88;;;19.65;85.01
30897;BME280;17597;52.246;21.054;2022-08-02T02:50:03;100477.38;;;19.65;84.31
30897;BME280;17597;52.246;21.054;2022-08-02T02:52:29;100482.00;;;19.64;84.25
30897;BME280;17597;52.246;21.054;2022-08-02T02:54:55;100495.72;;;19.59;84.67
30897;BME280;17597;52.246;21.054;2022-08-02T02:57:22;100493.63;;;19.56;84.72
30897;BME280;17597;52.246;21.054;2022-08-02T02:59:48;100488.38;;;19.51;84.74
30897;BME280;17597;52.246;21.054;2022-08-02T03:02:14;100490.28;;;19.51;84.75
30897;BME280;17597;52.246;21.054;2022-08-02T03:04:41;100494.44;;;19.48;84.25
30897;BME280;17597;52.246;21.054;2022-08-02T03:07:09;100494.25;;;19.45;84.15
30897;BME280;17597;52.246;21.054;2022-08-02T03:09:34;100486.44;;;19.43;83.40
30897;BME280;17597;52.246;21.054;2022-08-02T03:12:00;100482.94;;;19.34;83.70
30897;BME280;17597;52.246;21.054;2022-08-02T03:14:26;100474.84;;;19.25;83.59
30897;BME280;17597;52.246;21.054;2022-08-02T03:16:53;100484.56;;;19.26;82.91
30897;BME280;17597;52.246;21.054;2022-08-02T03:19:20;100483.25;;;19.24;83.35
30897;BME280;17597;52.246;21.054;2022-08-02T03:21:48;100481.53;;;19.19;83.32
30897;BME280;17597;52.246;21.054;2022-08-02T03:24:13;100475.16;;;19.15;82.84
30897;BME280;17597;52.246;21.054;2022-08-02T03:26:39;100473.09;;;19.21;80.58
30897;BME280;17597;52.246;21.054;2022-08-02T03:29:05;100473.41;;;19.19;80.75
30897;BME280;17597;52.246;21.054;2022-08-02T03:31:31;100475.16;;;19.15;80.61
30897;BME280;17597;52.246;21.054;2022-08-02T03:33:58;100480.56;;;19.24;79.96
30897;BME280;17597;52.246;21.054;2022-08-02T03:36:26;100476.75;;;19.25;79.30
30897;BME280;17597;52.246;21.054;2022-08-02T03:38:52;100480.25;;;19.25;79.58
30897;BME280;17597;52.246;21.054;2022-08-02T03:41:19;100482.47;;;19.23;79.97
30897;BME280;17597;52.246;21.054;2022-08-02T03:43:46;100490.59;;;19.15;80.31
30897;BME280;17597;52.246;21.054;2022-08-02T03:46:14;100485.81;;;19.12;80.46
30897;BME280;17597;52.246;21.054;2022-08-02T03:48:41;100486.13;;;19.19;79.68
30897;BME280;17597;52.246;21.054;2022-08-02T03:51:07;100493.91;;;19.12;79.61
30897;BME280;17597;52.246;21.054;2022-08-02T03:53:32;100505.53;;;19.12;78.94
30897;BME280;17597;52.246;21.054;2022-08-02T03:55:59;100503.47;;;19.09;79.41
30897;BME280;17597;52.246;21.054;2022-08-02T03:58:25;100505.84;;;19.11;78.77
30897;BME280;17597;52.246;21.054;2022-08-02T04:00:53;100516.88;;;19.14;78.65
30897;BME280;17597;52.246;21.054;2022-08-02T04:03:18;100516.69;;;19.11;78.76
30897;BME280;17597;52.246;21.054;2022-08-02T04:05:44;100515.88;;;19.10;79.50
30897;BME280;17597;52.246;21.054;2022-08-02T04:08:09;100525.44;;;19.16;78.47
30897;BME280;17597;52.246;21.054;2022-08-02T04:10:34;100533.22;;;19.09;77.92
30897;BME280;17597;52.246;21.054;2022-08-02T04:13:21;100527.19;;;19.03;78.10
30897;BME280;17597;52.246;21.054;2022-08-02T04:15:49;100538.16;;;19.07;77.24
30897;BME280;17597;52.246;21.054;2022-08-02T04:18:18;100534.81;;;19.10;77.16
30897;BME280;17597;52.246;21.054;2022-08-02T04:20:48;100538.00;;;19.12;77.42
30897;BME280;17597;52.246;21.054;2022-08-02T04:23:16;100535.47;;;19.07;77.54
30897;BME280;17597;52.246;21.054;2022-08-02T04:25:42;100532.13;;;19.10;76.76
30897;BME280;17597;52.246;21.054;2022-08-02T04:28:10;100540.38;;;19.14;76.17
30897;BME280;17597;52.246;21.054;2022-08-02T04:30:38;100539.59;;;19.13;76.85
30897;BME280;17597;52.246;21.054;2022-08-02T04:33:04;100543.41;;;19.12;76.33
30897;BME280;17597;52.246;21.054;2022-08-02T04:35:30;100542.47;;;19.17;76.91
30897;BME280;17597;52.246;21.054;2022-08-02T04:37:55;100546.47;;;19.19;76.85
30897;BME280;17597;52.246;21.054;2022-08-02T04:40:21;100546.31;;;19.33;75.08
30897;BME280;17597;52.246;21.054;2022-08-02T04:42:46;100553.66;;;19.41;73.75
30897;BME280;17597;52.246;21.054;2022-08-02T04:45:11;100553.47;;;19.29;74.97
30897;BME280;17597;52.246;21.054;2022-08-02T04:47:38;100552.38;;;19.39;73.01
30897;BME280;17597;52.246;21.054;2022-08-02T04:50:04;100557.63;;;19.44;72.79
30897;BME280;17597;52.246;21.054;2022-08-02T04:52:29;100568.28;;;19.40;73.33
30897;BME280;17597;52.246;21.054;2022-08-02T04:54:54;100567.97;;;19.42;72.34
30897;BME280;17597;52.246;21.054;2022-08-02T04:57:20;100568.94;;;19.37;72.45
30897;BME280;17597;52.246;21.054;2022-08-02T05:00:05;100571.47;;;19.42;72.44
30897;BME280;17597;52.246;21.054;2022-08-02T05:02:33;100573.09;;;19.52;71.75
30897;BME280;17597;52.246;21.054;2022-08-02T05:04:58;100585.34;;;19.41;72.88
30897;BME280;17597;52.246;21.054;2022-08-02T05:07:24;100578.66;;;19.38;73.21
30897;BME280;17597;52.246;21.054;2022-08-02T05:09:49;100581.34;;;19.38;73.03
30897;BME280;17597;52.246;21.054;2022-08-02T05:12:14;100588.19;;;19.44;72.56
30897;BME280;17597;52.246;21.054;2022-08-02T05:14:40;100587.25;;;19.49;72.20
30897;BME280;17597;52.246;21.054;2022-08-02T05:17:05;100594.63;;;19.57;70.96
30897;BME280;17597;52.246;21.054;2022-08-02T05:19:31;100599.22;;;19.56;70.83
30897;BME280;17597;52.246;21.054;2022-08-02T05:21:56;100600.22;;;19.69;69.50
30897;BME280;17597;52.246;21.054;2022-08-02T05:24:22;100606.56;;;19.64;70.16
30897;BME280;17597;52.246;21.054;2022-08-02T05:26:48;100609.44;;;19.59;70.48
30897;BME280;17597;52.246;21.054;2022-08-02T05:29:13;100607.53;;;19.60;70.84
30897;BME280;17597;52.246;21.054;2022-08-02T05:31:38;100607.22;;;19.70;70.90
30897;BME280;17597;52.246;21.054;2022-08-02T05:34:04;100608.66;;;19.93;67.92
30897;BME280;17597;52.246;21.054;2022-08-02T05:36:30;100614.84;;;20.03;67.09
30897;BME280;17597;52.246;21.054;2022-08-02T05:38:55;100618.03;;;20.05;67.76
30897;BME280;17597;52.246;21.054;2022-08-02T05:41:21;100616.75;;;20.19;66.80
30897;BME280;17597;52.246;21.054;2022-08-02T05:43:47;100618.63;;;20.36;65.04
30897;BME280;17597;52.246;21.054;2022-08-02T05:46:12;100618.44;;;20.41;65.51
30897;BME280;17597;52.246;21.054;2022-08-02T05:48:37;100619.44;;;20.37;65.76
30897;BME280;17597;52.246;21.054;2022-08-02T05:51:05;100626.00;;;20.44;65.83
30897;BME280;17597;52.246;21.054;2022-08-02T05:53:45;100622.59;;;20.65;63.01
30897;BME280;17597;52.246;21.054;2022-08-02T05:56:24;100627.59;;;20.92;61.38
30897;BME280;17597;52.246;21.054;2022-08-02T05:59:09;100627.84;;;21.08;60.37
30897;BME280;17597;52.246;21.054;2022-08-02T06:01:41;100630.69;;;21.12;60.24
30897;BME280;17597;52.246;21.054;2022-08-02T06:04:16;100623.34;;;21.12;60.85
30897;BME280;17597;52.246;21.054;2022-08-02T06:06:45;100630.59;;;21.38;58.75
30897;BME280;17597;52.246;21.054;2022-08-02T06:09:16;100631.38;;;21.38;58.71
30897;BME280;17597;52.246;21.054;2022-08-02T06:11:48;100632.78;;;21.65;55.81
30897;BME280;17597;52.246;21.054;2022-08-02T06:14:16;100629.28;;;21.64;57.04
30897;BME280;17597;52.246;21.054;2022-08-02T06:16:42;100627.81;;;21.67;57.67
30897;BME280;17597;52.246;21.054;2022-08-02T06:19:10;100622.94;;;21.81;54.24
30897;BME280;17597;52.246;21.054;2022-08-02T06:21:41;100633.41;;;21.91;53.40
30897;BME280;17597;52.246;21.054;2022-08-02T06:24:08;100627.75;;;21.97;53.45
30897;BME280;17597;52.246;21.054;2022-08-02T06:26:35;100633.78;;;22.02;53.11
30897;BME280;17597;52.246;21.054;2022-08-02T06:29:02;100634.59;;;22.03;53.87
30897;BME280;17597;52.246;21.054;2022-08-02T06:31:28;100640.03;;;22.03;54.06
30897;BME280;17597;52.246;21.054;2022-08-02T06:33:54;100640.22;;;22.18;53.05
30897;BME280;17597;52.246;21.054;2022-08-02T06:39:07;100637.50;;;22.51;51.08
30897;BME280;17597;52.246;21.054;2022-08-02T06:41:39;100645.25;;;22.74;50.03
30897;BME280;17597;52.246;21.054;2022-08-02T06:44:06;100649.00;;;22.81;49.51
30897;BME280;17597;52.246;21.054;2022-08-02T06:46:32;100642.34;;;22.91;49.68
30897;BME280;17597;52.246;21.054;2022-08-02T06:48:59;100650.19;;;22.93;51.01
30897;BME280;17597;52.246;21.054;2022-08-02T06:51:25;100644.63;;;23.01;50.88
30897;BME280;17597;52.246;21.054;2022-08-02T06:53:50;100653.47;;;23.35;48.26
30897;BME280;17597;52.246;21.054;2022-08-02T06:56:15;100648.03;;;23.35;49.18
30897;BME280;17597;52.246;21.054;2022-08-02T06:58:41;100650.63;;;23.56;48.06
30897;BME280;17597;52.246;21.054;2022-08-02T07:01:07;100650.44;;;23.61;48.03
30897;BME280;17597;52.246;21.054;2022-08-02T07:03:34;100658.91;;;23.72;48.17
30897;BME280;17597;52.246;21.054;2022-08-02T07:06:00;100656.47;;;23.94;46.80
30897;BME280;17597;52.246;21.054;2022-08-02T07:08:27;100660.28;;;24.06;46.56
30897;BME280;17597;52.246;21.054;2022-08-02T07:10:59;100661.91;;;24.22;46.05
30897;BME280;17597;52.246;21.054;2022-08-02T07:13:26;100650.75;;;24.28;44.77
30897;BME280;17597;52.246;21.054;2022-08-02T07:15:51;100664.16;;;24.33;44.08
30897;BME280;17597;52.246;21.054;2022-08-02T07:18:17;100663.97;;;24.26;43.88
30897;BME280;17597;52.246;21.054;2022-08-02T07:20:42;100672.28;;;24.17;45.34
30897;BME280;17597;52.246;21.054;2022-08-02T07:23:07;100664.91;;;24.17;46.35
30897;BME280;17597;52.246;21.054;2022-08-02T07:25:33;100656.22;;;24.28;45.97
30897;BME280;17597;52.246;21.054;2022-08-02T07:27:59;100659.28;;;24.38;44.65
30897;BME280;17597;52.246;21.054;2022-08-02T07:30:24;100656.75;;;24.61;42.58
30897;BME280;17597;52.246;21.054;2022-08-02T07:32:49;100654.03;;;24.61;43.11
30897;BME280;17597;52.246;21.054;2022-08-02T07:35:15;100654.56;;;26.00;41.09
30897;BME280;17597;52.246;21.054;2022-08-02T07:37:40;100655.19;;;29.29;33.92
30897;BME280;17597;52.246;21.054;2022-08-02T07:40:09;100662.97;;;32.87;27.15
30897;BME280;17597;52.246;21.054;2022-08-02T07:42:35;100667.03;;;35.23;24.35
30897;BME280;17597;52.246;21.054;2022-08-02T07:45:00;100666.47;;;35.95;22.04
30897;BME280;17597;52.246;21.054;2022-08-02T07:47:25;100668.09;;;36.97;21.31
30897;BME280;17597;52.246;21.054;2022-08-02T07:49:51;100658.56;;;37.98;20.42
30897;BME280;17597;52.246;21.054;2022-08-02T07:52:16;100660.38;;;38.55;20.40
30897;BME280;17597;52.246;21.054;2022-08-02T07:54:41;100657.81;;;38.73;20.07
30897;BME280;17597;52.246;21.054;2022-08-02T07:57:07;100667.66;;;39.34;19.45
30897;BME280;17597;52.246;21.054;2022-08-02T07:59:32;100665.63;;;40.90;19.77
30897;BME280;17597;52.246;21.054;2022-08-02T08:01:57;100674.00;;;42.33;17.21
30897;BME280;17597;52.246;21.054;2022-08-02T08:04:23;100663.47;;;43.98;15.11
30897;BME280;17597;52.246;21.054;2022-08-02T08:06:48;100664.06;;;45.39;13.28
30897;BME280;17597;52.246;21.054;2022-08-02T08:09:16;100671.53;;;45.99;13.93
30897;BME280;17597;52.246;21.054;2022-08-02T08:11:42;100675.16;;;46.80;12.96
30897;BME280;17597;52.246;21.054;2022-08-02T08:14:07;100669.06;;;47.04;12.88
30897;BME280;17597;52.246;21.054;2022-08-02T08:16:32;100669.88;;;47.21;12.56
30897;BME280;17597;52.246;21.054;2022-08-02T08:18:58;100664.53;;;47.45;12.51
30897;BME280;17597;52.246;21.054;2022-08-02T08:21:24;100660.19;;;48.00;12.48
30897;BME280;17597;52.246;21.054;2022-08-02T08:23:49;100660.63;;;48.44;11.81
30897;BME280;17597;52.246;21.054;2022-08-02T08:26:14;100658.16;;;47.90;11.73
30897;BME280;17597;52.246;21.054;2022-08-02T08:28:40;100670.97;;;48.30;12.23
30897;BME280;17597;52.246;21.054;2022-08-02T08:31:05;100663.84;;;48.76;11.53
30897;BME280;17597;52.246;21.054;2022-08-02T08:33:31;100664.66;;;49.17;11.45
30897;BME280;17597;52.246;21.054;2022-08-02T08:35:56;100664.13;;;49.24;10.91
30897;BME280;17597;52.246;21.054;2022-08-02T08:38:22;100667.03;;;49.08;11.53
30897;BME280;17597;52.246;21.054;2022-08-02T08:40:48;100665.81;;;49.03;11.50
30897;BME280;17597;52.246;21.054;2022-08-02T08:43:14;100663.78;;;48.92;12.28
30897;BME280;17597;52.246;21.054;2022-08-02T08:45:43;100659.09;;;49.01;12.09
30897;BME280;17597;52.246;21.054;2022-08-02T08:48:14;100666.69;;;48.76;11.61
30897;BME280;17597;52.246;21.054;2022-08-02T08:50:49;100662.25;;;48.86;11.38
30897;BME280;17597;52.246;21.054;2022-08-02T08:53:16;100660.50;;;48.77;11.59
30897;BME280;17597;52.246;21.054;2022-08-02T08:55:42;100670.16;;;49.04;11.23
30897;BME280;17597;52.246;21.054;2022-08-02T08:58:10;100664.25;;;48.16;12.08
30897;BME280;17597;52.246;21.054;2022-08-02T09:00:36;100669.16;;;48.90;11.72
30897;BME280;17597;52.246;21.054;2022-08-02T09:03:03;100663.47;;;48.96;11.28
30897;BME280;17597;52.246;21.054;2022-08-02T09:05:33;100664.53;;;48.99;11.63
30897;BME280;17597;52.246;21.054;2022-08-02T09:07:58;100664.25;;;48.33;11.72
30897;BME280;17597;52.246;21.054;2022-08-02T09:10:41;100650.66;;;47.81;12.25
30897;BME280;17597;52.246;21.054;2022-08-02T09:13:08;100658.91;;;47.62;11.99
30897;BME280;17597;52.246;21.054;2022-08-02T09:15:35;100657.09;;;47.81;12.61
30897;BME280;17597;52.246;21.054;2022-08-02T09:18:02;100660.44;;;47.80;11.79
30897;BME280;17597;52.246;21.054;2022-08-02T09:20:28;100657.03;;;47.31;12.62
30897;BME280;17597;52.246;21.054;2022-08-02T09:23:10;100656.56;;;47.49;12.18
30897;BME280;17597;52.246;21.054;2022-08-02T09:25:36;100661.69;;;47.45;11.85
30897;BME280;17597;52.246;21.054;2022-08-02T09:28:03;100661.56;;;46.89;12.68
30897;BME280;17597;52.246;21.054;2022-08-02T09:30:29;100667.63;;;46.71;13.34
30897;BME280;17597;52.246;21.054;2022-08-02T09:32:55;100666.72;;;46.91;13.24
30897;BME280;17597;52.246;21.054;2022-08-02T09:35:34;100661.91;;;47.19;11.88
30897;BME280;17597;52.246;21.054;2022-08-02T09:38:11;100666.81;;;47.30;12.96
30897;BME280;17597;52.246;21.054;2022-08-02T09:40:39;100664.00;;;47.36;12.21
30897;BME280;17597;52.246;21.054;2022-08-02T09:43:06;100665.78;;;47.22;13.76
30897;BME280;17597;52.246;21.054;2022-08-02T09:45:51;100660.66;;;46.61;13.02
30897;BME280;17597;52.246;21.054;2022-08-02T09:48:16;100661.09;;;46.05;14.38
30897;BME280;17597;52.246;21.054;2022-08-02T09:50:43;100662.09;;;43.49;15.02
30897;BME280;17597;52.246;21.054;2022-08-02T09:53:12;100656.44;;;42.57;15.95
30897;BME280;17597;52.246;21.054;2022-08-02T09:55:39;100666.72;;;42.51;16.57
30897;BME280;17597;52.246;21.054;2022-08-02T09:58:18;100662.69;;;41.21;18.27
30897;BME280;17597;52.246;21.054;2022-08-02T10:00:52;100651.59;;;39.91;19.84
30897;BME280;17597;52.246;21.054;2022-08-02T10:03:18;100654.34;;;37.64;21.35
30897;BME280;17597;52.246;21.054;2022-08-02T10:05:53;100654.94;;;37.14;21.61
30897;BME280;17597;52.246;21.054;2022-08-02T10:08:19;100650.13;;;38.39;20.07
30897;BME280;17597;52.246;21.054;2022-08-02T10:10:45;100655.84;;;39.30;19.29
30897;BME280;17597;52.246;21.054;2022-08-02T10:13:11;100653.19;;;38.80;19.33
30897;BME280;17597;52.246;21.054;2022-08-02T10:15:37;100648.28;;;37.82;20.43
30897;BME280;17597;52.246;21.054;2022-08-02T10:18:07;100646.16;;;36.66;22.61
30897;BME280;17597;52.246;21.054;2022-08-02T10:20:42;100647.28;;;35.80;23.05
30897;BME280;17597;52.246;21.054;2022-08-02T10:23:12;100661.69;;;34.38;24.24
30897;BME280;17597;52.246;21.054;2022-08-02T10:25:39;100653.13;;;33.64;25.45
30897;BME280;17597;52.246;21.054;2022-08-02T10:28:07;100650.22;;;33.00;26.58
30897;BME280;17597;52.246;21.054;2022-08-02T10:30:38;100656.81;;;32.61;27.69
30897;BME280;17597;52.246;21.054;2022-08-02T10:33:06;100652.25;;;32.37;28.41
30897;BME280;17597;52.246;21.054;2022-08-02T10:35:36;100646.78;;;32.22;29.85
30897;BME280;17597;52.246;21.054;2022-08-02T10:38:08;100649.25;;;32.03;30.29
30897;BME280;17597;52.246;21.054;2022-08-02T10:40:47;100646.31;;;31.04;30.59
30897;BME280;17597;52.246;21.054;2022-08-02T10:43:45;100649.47;;;30.53;31.87
30897;BME280;17597;52.246;21.054;2022-08-02T10:49:12;100647.84;;;30.31;32.29
30897;BME280;17597;52.246;21.054;2022-08-02T10:54:20;100648.97;;;30.15;33.18
30897;BME280;17597;52.246;21.054;2022-08-02T10:56:47;100639.41;;;29.81;34.00
30897;BME280;17597;52.246;21.054;2022-08-02T11:01:52;100644.06;;;29.70;33.62
30897;BME280;17597;52.246;21.054;2022-08-02T11:04:26;100641.31;;;29.70;33.89
30897;BME280;17597;52.246;21.054;2022-08-02T11:09:43;100638.94;;;29.68;33.17
30897;BME280;17597;52.246;21.054;2022-08-02T11:12:13;100641.28;;;29.62;33.91
30897;BME280;17597;52.246;21.054;2022-08-02T11:14:41;100634.59;;;29.56;35.25
30897;BME280;17597;52.246;21.054;2022-08-02T11:17:12;100636.59;;;29.74;34.76
30897;BME280;17597;52.246;21.054;2022-08-02T11:22:34;100639.88;;;30.01;32.85
30897;BME280;17597;52.246;21.054;2022-08-02T11:27:54;100628.59;;;29.47;34.88
30897;BME280;17597;52.246;21.054;2022-08-02T11:30:20;100633.50;;;29.82;32.74
30897;BME280;17597;52.246;21.054;2022-08-02T11:32:46;100626.47;;;29.88;33.05
30897;BME280;17597;52.246;21.054;2022-08-02T11:35:12;100643.34;;;29.87;33.29
30897;BME280;17597;52.246;21.054;2022-08-02T11:37:42;100639.44;;;29.91;33.03
30897;BME280;17597;52.246;21.054;2022-08-02T11:40:13;100644.59;;;30.00;32.96
30897;BME280;17597;52.246;21.054;2022-08-02T11:42:41;100644.25;;;30.19;33.30
30897;BME280;17597;52.246;21.054;2022-08-02T11:45:10;100640.75;;;30.26;33.52
30897;BME280;17597;52.246;21.054;2022-08-02T11:47:46;100643.13;;;30.49;33.04
30897;BME280;17597;52.246;21.054;2022-08-02T11:50:12;100652.97;;;30.39;33.22
30897;BME280;17597;52.246;21.054;2022-08-02T11:52:38;100649.06;;;30.55;32.44
30897;BME280;17597;52.246;21.054;2022-08-02T11:55:08;100651.41;;;30.56;32.38
30897;BME280;17597;52.246;21.054;2022-08-02T11:57:36;100642.41;;;30.70;32.41
30897;BME280;17597;52.246;21.054;2022-08-02T12:00:04;100642.78;;;30.72;33.08
30897;BME280;17597;52.246;21.054;2022-08-02T12:02:31;100643.19;;;30.81;33.05
30897;BME280;17597;52.246;21.054;2022-08-02T12:05:01;100643.19;;;30.81;33.04
30897;BME280;17597;52.246;21.054;2022-08-02T12:07:32;100637.69;;;30.74;32.58
30897;BME280;17597;52.246;21.054;2022-08-02T12:10:08;100631.38;;;30.52;33.50
30897;BME280;17597;52.246;21.054;2022-08-02T12:12:57;100637.63;;;30.31;33.95
30897;BME280;17597;52.246;21.054;2022-08-02T12:15:36;100641.13;;;30.10;34.48
30897;BME280;17597;52.246;21.054;2022-08-02T12:18:18;100645.88;;;30.38;33.79
30897;BME280;17597;52.246;21.054;2022-08-02T12:21:03;100627.38;;;30.35;33.93
30897;BME280;17597;52.246;21.054;2022-08-02T12:23:44;100632.19;;;30.77;33.43
30897;BME280;17597;52.246;21.054;2022-08-02T12:26:09;100639.25;;;30.93;32.09
30897;BME280;17597;52.246;21.054;2022-08-02T12:28:37;100636.50;;;30.82;32.80
30897;BME280;17597;52.246;21.054;2022-08-02T12:31:06;100634.91;;;30.52;33.11
30897;BME280;17597;52.246;21.054;2022-08-02T12:33:52;100643.53;;;30.44;32.90
30897;BME280;17597;52.246;21.054;2022-08-02T12:36:24;100641.16;;;30.35;32.91
30897;BME280;17597;52.246;21.054;2022-08-02T12:38:57;100636.84;;;30.48;32.62
30897;BME280;17597;52.246;21.054;2022-08-02T12:41:24;100645.13;;;30.45;32.94
30897;BME280;17597;52.246;21.054;2022-08-02T12:43:51;100641.16;;;30.39;33.47
30897;BME280;17597;52.246;21.054;2022-08-02T12:46:18;100639.22;;;30.53;33.54
30897;BME280;17597;52.246;21.054;2022-08-02T12:48:44;100644.31;;;30.62;33.21
30897;BME280;17597;52.246;21.054;2022-08-02T12:51:31;100642.81;;;30.75;32.15
30897;BME280;17597;52.246;21.054;2022-08-02T12:54:18;100634.06;;;30.27;33.74
30897;BME280;17597;52.246;21.054;2022-08-02T12:56:45;100644.63;;;30.07;34.01
30897;BME280;17597;52.246;21.054;2022-08-02T12:59:11;100642.31;;;30.27;33.89
30897;BME280;17597;52.246;21.054;2022-08-02T13:01:36;100641.97;;;30.46;33.60
30897;BME280;17597;52.246;21.054;2022-08-02T13:04:01;100644.75;;;30.71;32.70
30897;BME280;17597;52.246;21.054;2022-08-02T13:06:27;100632.97;;;30.78;32.74
30897;BME280;17597;52.246;21.054;2022-08-02T13:08:53;100643.22;;;30.95;33.05